Time;durP1;ratioP1;P1;durP2;ratioP2;P2;SDS_P1;SDS_P2;PMS_P1;PMS_P2;Temp;Humidity;BMP_temperature;BMP_pressure;BME280_temperature;BME280_humidity;BME280_pressure;Samples;Min_cycle;Max_cycle;Signal;HPM_P1;HPM_P2
2022/09/05 00:02:01;;;;;;;6.70;2.63;;;;;;;;;;4889972;29;20069;-65
2022/09/05 00:04:56;;;;;;;8.23;2.65;;;;;;;;;;4877104;29;20056;-66
2022/09/05 00:07:41;;;;;;;5.97;2.30;;;;;;;;;;4877363;29;20057;-66
2022/09/05 00:10:34;;;;;;;7.60;2.25;;;;;;;;;;4962366;28;20054;-66
2022/09/05 00:13:31;;;;;;;9.25;4.22;;;;;;;;;;5004218;28;20438;-65
2022/09/05 00:16:37;;;;;;;6.30;2.28;;;;;;;;;;5007320;28;20419;-66
2022/09/05 00:19:23;;;;;;;7.38;2.33;;;;;;;;;;4991624;28;20065;-66
2022/09/05 00:22:20;;;;;;;7.55;2.60;;;;;;;;;;4991347;28;20062;-67
2022/09/05 00:25:35;;;;;;;9.45;2.38;;;;;;;;;;4979917;28;20062;-65
2022/09/05 00:28:15;;;;;;;7.63;2.70;;;;;;;;;;5011380;28;20049;-66
2022/09/05 00:31:15;;;;;;;5.30;2.65;;;;;;;;;;5030750;28;20050;-66
2022/09/05 00:34:20;;;;;;;6.30;2.30;;;;;;;;;;5029932;28;20045;-66
2022/09/05 00:36:53;;;;;;;7.78;2.95;;;;;;;;;;4997418;28;20056;-65
2022/09/05 00:39:32;;;;;;;6.35;2.60;;;;;;;;;;5030533;28;20402;-66
2022/09/05 00:42:13;;;;;;;6.68;2.85;;;;;;;;;;5030345;28;20425;-66
2022/09/05 00:45:01;;;;;;;8.38;3.28;;;;;;;;;;5030515;28;20406;-66
2022/09/05 00:47:56;;;;;;;5.63;2.47;;;;;;;;;;5013569;28;20064;-65
2022/09/05 00:50:56;;;;;;;6.47;2.55;;;;;;;;;;4997416;28;20046;-66
2022/09/05 00:53:36;;;;;;;9.70;2.72;;;;;;;;;;5030124;28;20049;-66
2022/09/05 00:56:37;;;;;;;11.45;3.28;;;;;;;;;;5029803;28;20390;-66
2022/09/05 00:59:42;;;;;;;7.25;2.50;;;;;;;;;;5010670;28;20057;-66
2022/09/05 01:03:10;;;;;;;7.10;2.60;;;;;;;;;;5003722;28;20049;-65
2022/09/05 01:06:23;;;;;;;6.25;2.65;;;;;;;;;;5029616;28;20493;-66
2022/09/05 01:09:28;;;;;;;6.90;2.40;;;;;;;;;;5029313;28;20057;-66
2022/09/05 01:12:09;;;;;;;7.13;2.67;;;;;;;;;;5013300;28;20053;-66
2022/09/05 01:15:53;;;;;;;5.95;2.55;;;;;;;;;;5003361;28;20054;-67
2022/09/05 01:19:59;;;;;;;8.95;3.42;;;;;;;;;;5029393;28;20575;-66
2022/09/05 01:23:27;;;;;;;7.63;2.50;;;;;;;;;;5029333;28;20058;-66
2022/09/05 01:26:52;;;;;;;8.18;2.88;;;;;;;;;;5029923;28;20046;-66
2022/09/05 01:30:07;;;;;;;7.28;2.60;;;;;;;;;;5029370;28;20049;-66
2022/09/05 01:33:04;;;;;;;4.53;2.20;;;;;;;;;;5029571;28;20093;-66
2022/09/05 01:36:11;;;;;;;7.95;2.65;;;;;;;;;;5039447;28;20048;-66
2022/09/05 01:39:29;;;;;;;6.40;2.47;;;;;;;;;;5029542;28;20416;-65
2022/09/05 01:43:12;;;;;;;8.27;2.53;;;;;;;;;;5050036;28;20049;-66
2022/09/05 01:45:54;;;;;;;8.05;2.70;;;;;;;;;;5048962;28;20041;-66
2022/09/05 01:49:23;;;;;;;9.15;2.25;;;;;;;;;;5053414;28;20171;-66
2022/09/05 01:53:03;;;;;;;5.55;2.35;;;;;;;;;;5056735;28;20090;-66
2022/09/05 02:03:08;;;;;;;11.40;2.60;;;;;;;;;;5029300;28;20049;-66
2022/09/05 02:05:59;;;;;;;6.72;2.53;;;;;;;;;;5028907;28;20042;-66
2022/09/05 02:08:48;;;;;;;9.20;3.17;;;;;;;;;;5012774;28;20054;-66
2022/09/05 02:11:40;;;;;;;6.35;2.78;;;;;;;;;;5028820;28;20053;-65
2022/09/05 02:14:19;;;;;;;14.93;3.38;;;;;;;;;;5012243;28;20075;-66
2022/09/05 02:17:45;;;;;;;9.30;2.60;;;;;;;;;;5009023;28;20050;-66
2022/09/05 02:20:33;;;;;;;6.05;3.00;;;;;;;;;;5025133;28;20129;-66
2022/09/05 02:23:15;;;;;;;6.65;2.70;;;;;;;;;;5028753;28;20465;-66
2022/09/05 02:26:40;;;;;;;7.32;2.67;;;;;;;;;;5029045;28;20049;-66
2022/09/05 02:29:19;;;;;;;6.40;2.42;;;;;;;;;;4989699;28;20054;-66
2022/09/05 02:32:17;;;;;;;7.30;2.83;;;;;;;;;;4941454;28;20066;-65
2022/09/05 02:35:03;;;;;;;7.43;2.83;;;;;;;;;;4989356;28;20073;-65
2022/09/05 02:37:43;;;;;;;7.88;3.00;;;;;;;;;;4989549;28;20058;-65
2022/09/05 02:40:36;;;;;;;11.85;3.10;;;;;;;;;;4989006;28;20061;-66
2022/09/05 02:43:38;;;;;;;6.78;2.65;;;;;;;;;;4991552;28;20070;-66
2022/09/05 02:47:06;;;;;;;6.20;2.88;;;;;;;;;;4970064;28;20054;-65
2022/09/05 02:50:20;;;;;;;6.38;3.08;;;;;;;;;;4970086;28;20402;-66
2022/09/05 02:53:14;;;;;;;6.13;3.05;;;;;;;;;;4969812;28;20059;-65
2022/09/05 02:56:38;;;;;;;7.60;2.75;;;;;;;;;;5008670;28;20042;-65
2022/09/05 03:00:04;;;;;;;9.57;3.17;;;;;;;;;;5012428;28;20050;-66
2022/09/05 03:03:01;;;;;;;8.73;3.25;;;;;;;;;;5012426;28;20064;-65
2022/09/05 03:05:34;;;;;;;6.82;2.65;;;;;;;;;;5002215;28;20077;-66
2022/09/05 03:08:31;;;;;;;7.38;3.17;;;;;;;;;;4953960;29;20062;-65
2022/09/05 03:11:38;;;;;;;8.70;2.95;;;;;;;;;;4934450;29;20055;-65
2022/09/05 03:14:33;;;;;;;9.32;3.10;;;;;;;;;;4934652;29;20078;-65
2022/09/05 03:17:09;;;;;;;7.43;2.90;;;;;;;;;;4934794;29;20056;-66
2022/09/05 03:19:47;;;;;;;5.57;2.60;;;;;;;;;;4953572;29;20063;-65
2022/09/05 03:22:46;;;;;;;7.53;2.75;;;;;;;;;;4953454;29;20066;-65
2022/09/05 03:25:23;;;;;;;7.40;3.47;;;;;;;;;;4937656;28;20484;-65
2022/09/05 03:28:30;;;;;;;6.75;2.58;;;;;;;;;;5005395;28;20077;-66
2022/09/05 03:31:25;;;;;;;9.43;3.13;;;;;;;;;;5012065;28;20053;-66
2022/09/05 03:34:24;;;;;;;7.63;2.90;;;;;;;;;;5009743;28;20057;-66
2022/09/05 03:37:14;;;;;;;7.97;2.70;;;;;;;;;;5031554;28;20061;-66
2022/09/05 03:40:14;;;;;;;9.27;4.53;;;;;;;;;;5031569;28;20506;-66
2022/09/05 03:42:53;;;;;;;6.13;2.92;;;;;;;;;;5031144;28;20049;-66
2022/09/05 03:45:37;;;;;;;5.93;2.50;;;;;;;;;;4989498;28;20100;-65
2022/09/05 03:48:22;;;;;;;5.47;2.50;;;;;;;;;;5027096;28;20052;-66
2022/09/05 03:51:18;;;;;;;6.05;2.63;;;;;;;;;;5091372;28;20404;-65
2022/09/05 03:54:46;;;;;;;7.75;2.80;;;;;;;;;;5091374;28;20059;-65
2022/09/05 03:57:55;;;;;;;7.90;3.15;;;;;;;;;;5091432;28;20040;-66
2022/09/05 04:01:19;;;;;;;7.30;2.83;;;;;;;;;;5057504;28;20082;-65
2022/09/05 04:04:27;;;;;;;7.25;2.72;;;;;;;;;;5091248;28;20118;-66
2022/09/05 04:07:28;;;;;;;6.75;2.33;;;;;;;;;;5091160;28;20056;-65
2022/09/05 04:11:11;;;;;;;5.88;3.15;;;;;;;;;;5089884;28;20052;-66
2022/09/05 04:13:48;;;;;;;9.80;3.15;;;;;;;;;;5031038;28;20413;-66
2022/09/05 04:16:21;;;;;;;9.38;3.13;;;;;;;;;;5030942;28;20053;-65
2022/09/05 04:19:11;;;;;;;11.57;2.67;;;;;;;;;;5030637;28;20045;-65
2022/09/05 04:21:57;;;;;;;6.85;3.08;;;;;;;;;;4995163;28;20050;-65
2022/09/05 04:24:40;;;;;;;10.52;3.25;;;;;;;;;;5010805;28;20061;-65
2022/09/05 04:27:23;;;;;;;9.68;3.67;;;;;;;;;;4996634;28;20406;-65
2022/09/05 04:30:21;;;;;;;;;;;;;;;;;;5011421;28;20054;-66
2022/09/05 04:33:28;;;;;;;7.07;3.03;;;;;;;;;;5010661;28;19925;-66
2022/09/05 04:36:31;;;;;;;6.20;2.40;;;;;;;;;;5011204;28;20042;-65
2022/09/05 04:39:17;;;;;;;8.07;2.90;;;;;;;;;;5010355;28;20058;-66
2022/09/05 04:41:49;;;;;;;;;;;;;;;;;;4991023;28;20051;-65
2022/09/05 04:44:27;;;;;;;6.53;2.65;;;;;;;;;;4990697;28;19929;-65
2022/09/05 04:47:08;;;;;;;7.45;3.03;;;;;;;;;;4928872;28;20062;-66
2022/09/05 04:50:00;;;;;;;8.13;2.88;;;;;;;;;;4990765;28;20069;-65
2022/09/05 04:52:41;;;;;;;8.85;2.80;;;;;;;;;;4958333;28;20054;-66
2022/09/05 04:55:31;;;;;;;8.32;3.03;;;;;;;;;;4990415;28;20058;-65
2022/09/05 04:58:21;;;;;;;7.88;2.78;;;;;;;;;;4974802;28;20065;-65
2022/09/05 05:01:22;;;;;;;9.82;3.05;;;;;;;;;;4958341;28;20058;-65
2022/09/05 05:04:16;;;;;;;6.72;2.70;;;;;;;;;;4990413;28;20058;-65
2022/09/05 05:07:24;;;;;;;10.50;3.05;;;;;;;;;;4990544;28;20062;-65
2022/09/05 05:09:59;;;;;;;10.18;2.80;;;;;;;;;;4990458;28;20058;-65
2022/09/05 05:12:58;;;;;;;9.02;3.53;;;;;;;;;;4990362;28;20098;-65
2022/09/05 05:16:04;;;;;;;9.52;2.67;;;;;;;;;;4990300;28;20046;-65
2022/09/05 05:19:05;;;;;;;6.60;2.47;;;;;;;;;;4995690;28;20050;-66
2022/09/05 05:21:53;;;;;;;11.57;2.97;;;;;;;;;;5009594;28;20046;-65
2022/09/05 05:24:41;;;;;;;6.28;2.80;;;;;;;;;;5018135;28;20053;-65
2022/09/05 05:27:20;;;;;;;7.82;2.70;;;;;;;;;;5049123;28;20088;-65
2022/09/05 05:29:53;;;;;;;5.80;2.40;;;;;;;;;;5029115;28;20056;-65
2022/09/05 05:32:25;;;;;;;;;;;;;;;;;;5043029;28;20060;-66
2022/09/05 05:35:20;;;;;;;8.10;2.45;;;;;;;;;;5069220;28;19920;-66
2022/09/05 05:38:22;;;;;;;7.15;2.72;;;;;;;;;;5009277;28;20065;-66
2022/09/05 05:41:21;;;;;;;7.90;2.70;;;;;;;;;;4970331;28;20051;-66
2022/09/05 05:43:52;;;;;;;10.27;2.70;;;;;;;;;;4894052;29;20063;-65
2022/09/05 05:46:37;;;;;;;5.90;2.65;;;;;;;;;;4894286;29;20057;-65
2022/09/05 05:49:28;;;;;;;7.00;2.80;;;;;;;;;;4893996;29;20191;-66
2022/09/05 05:52:16;;;;;;;7.30;3.08;;;;;;;;;;4894133;29;20563;-66
2022/09/05 05:55:34;;;;;;;10.90;2.95;;;;;;;;;;4847988;29;20049;-66
2022/09/05 05:58:47;;;;;;;7.30;2.92;;;;;;;;;;4838527;29;20054;-65
2022/09/05 06:01:23;;;;;;;;;;;;;;;;;;4835047;29;20079;-65
2022/09/05 06:04:39;;;;;;;8.45;2.75;;;;;;;;;;4817006;29;19925;-65
2022/09/05 06:07:30;;;;;;;9.57;2.92;;;;;;;;;;4809077;29;20058;-66
2022/09/05 06:11:03;;;;;;;9.15;3.25;;;;;;;;;;4820225;29;20047;-66
2022/09/05 06:14:26;;;;;;;10.90;3.13;;;;;;;;;;4820245;29;20065;-65
2022/09/05 06:17:37;;;;;;;5.80;2.70;;;;;;;;;;4838307;29;20053;-65
2022/09/05 06:20:14;;;;;;;7.35;2.67;;;;;;;;;;4864642;29;20203;-65
2022/09/05 06:23:25;;;;;;;6.38;2.70;;;;;;;;;;4912868;29;20054;-66
2022/09/05 06:26:22;;;;;;;9.02;3.22;;;;;;;;;;4926084;28;20069;-65
2022/09/05 06:29:00;;;;;;;6.07;2.92;;;;;;;;;;4970159;28;20059;-65
2022/09/05 06:31:48;;;;;;;7.50;3.20;;;;;;;;;;4989380;28;20061;-65
2022/09/05 06:34:21;;;;;;;8.35;3.05;;;;;;;;;;5016138;28;20056;-65
2022/09/05 06:37:39;;;;;;;8.73;3.33;;;;;;;;;;5072643;28;20052;-65
2022/09/05 06:40:24;;;;;;;8.15;2.67;;;;;;;;;;5022310;28;20064;-65
2022/09/05 06:43:38;;;;;;;7.10;2.78;;;;;;;;;;5042074;28;20492;-66
2022/09/05 06:46:29;;;;;;;9.60;3.15;;;;;;;;;;5016340;28;20057;-66
2022/09/05 06:49:25;;;;;;;7.57;3.70;;;;;;;;;;5012477;28;20061;-65
2022/09/05 06:52:33;;;;;;;6.90;2.60;;;;;;;;;;5012795;28;20065;-66
2022/09/05 06:55:49;;;;;;;7.43;2.83;;;;;;;;;;4963774;28;20057;-65
2022/09/05 06:58:52;;;;;;;7.47;2.85;;;;;;;;;;4996244;28;20058;-66
2022/09/05 07:01:33;;;;;;;8.32;2.53;;;;;;;;;;5012217;28;20058;-65
2022/09/05 07:04:28;;;;;;;5.30;2.35;;;;;;;;;;4956676;28;20046;-65
2022/09/05 07:07:32;;;;;;;7.38;2.63;;;;;;;;;;4973099;28;20054;-65
2022/09/05 07:10:12;;;;;;;7.18;2.67;;;;;;;;;;4939944;28;20062;-66
2022/09/05 07:13:14;;;;;;;6.65;2.95;;;;;;;;;;4934779;29;20063;-66
2022/09/05 07:15:44;;;;;;;7.68;3.78;;;;;;;;;;4934475;29;20082;-65
2022/09/05 07:18:31;;;;;;;7.68;2.83;;;;;;;;;;4934981;29;20412;-66
2022/09/05 07:21:29;;;;;;;4.03;2.15;;;;;;;;;;4969126;28;20054;-64
2022/09/05 07:24:15;;;;;;;6.78;3.15;;;;;;;;;;4970968;28;20078;-66
2022/09/05 07:27:06;;;;;;;7.32;3.10;;;;;;;;;;4962693;28;20062;-66
2022/09/05 07:29:44;;;;;;;8.13;3.03;;;;;;;;;;4979676;28;20067;-67
2022/09/05 07:32:30;;;;;;;10.45;2.85;;;;;;;;;;4992256;28;20090;-65
2022/09/05 07:35:03;;;;;;;5.65;2.75;;;;;;;;;;4992142;28;20070;-66
2022/09/05 07:37:43;;;;;;;9.80;3.00;;;;;;;;;;4992230;28;20446;-65
2022/09/05 07:40:17;;;;;;;6.20;2.75;;;;;;;;;;4992210;28;20050;-65
2022/09/05 07:43:11;;;;;;;8.70;4.18;;;;;;;;;;5034665;28;20362;-65
2022/09/05 07:46:05;;;;;;;6.68;2.78;;;;;;;;;;5051076;28;20608;-65
2022/09/05 07:48:39;;;;;;;9.23;3.25;;;;;;;;;;5018286;28;20049;-65
2022/09/05 07:51:23;;;;;;;8.60;3.00;;;;;;;;;;5050978;28;20057;-65
2022/09/05 07:54:32;;;;;;;6.68;2.72;;;;;;;;;;5031129;28;20049;-65
2022/09/05 07:57:31;;;;;;;8.90;3.03;;;;;;;;;;5031209;28;20045;-65
2022/09/05 08:00:25;;;;;;;8.23;3.00;;;;;;;;;;5030956;28;20053;-66
2022/09/05 08:03:13;;;;;;;9.35;3.20;;;;;;;;;;5031024;28;20053;-65
2022/09/05 08:05:52;;;;;;;7.50;2.78;;;;;;;;;;5014668;28;20064;-65
2022/09/05 08:08:49;;;;;;;10.82;3.20;;;;;;;;;;5031049;28;20054;-65
2022/09/05 08:11:40;;;;;;;5.82;2.20;;;;;;;;;;5030917;28;20065;-65
2022/09/05 08:14:28;;;;;;;9.73;3.50;;;;;;;;;;5031030;28;20509;-65
2022/09/05 08:17:23;;;;;;;9.85;3.50;;;;;;;;;;4990998;28;20053;-66
2022/09/05 08:20:41;;;;;;;9.95;3.55;;;;;;;;;;4991145;28;20134;-65
2022/09/05 08:23:40;;;;;;;7.95;2.88;;;;;;;;;;4933346;29;20059;-66
2022/09/05 08:26:18;;;;;;;6.82;3.28;;;;;;;;;;4914477;29;20067;-66
2022/09/05 08:29:25;;;;;;;9.77;3.22;;;;;;;;;;4867653;29;20063;-66
2022/09/05 08:32:14;;;;;;;9.45;2.90;;;;;;;;;;4861123;29;20053;-66
2022/09/05 08:34:53;;;;;;;7.45;2.97;;;;;;;;;;4876669;29;20064;-65
2022/09/05 08:37:26;;;;;;;7.10;2.85;;;;;;;;;;4857020;29;20054;-65
2022/09/05 08:40:10;;;;;;;7.82;3.05;;;;;;;;;;4857631;29;20041;-65
2022/09/05 08:42:57;;;;;;;10.13;3.25;;;;;;;;;;4858160;29;20053;-66
2022/09/05 08:45:55;;;;;;;8.35;3.08;;;;;;;;;;4858144;29;20408;-66
2022/09/05 08:49:03;;;;;;;10.23;3.53;;;;;;;;;;4857879;29;20064;-66
2022/09/05 08:52:13;;;;;;;8.90;3.20;;;;;;;;;;4827123;29;20066;-65
2022/09/05 08:54:53;;;;;;;10.07;3.97;;;;;;;;;;4865822;29;20546;-65
2022/09/05 08:57:46;;;;;;;10.30;3.75;;;;;;;;;;4876359;29;20510;-65
2022/09/05 09:00:18;;;;;;;8.23;3.22;;;;;;;;;;4914263;29;20056;-66
2022/09/05 09:03:07;;;;;;;7.93;3.25;;;;;;;;;;4941676;28;20054;-65
2022/09/05 09:06:13;;;;;;;6.95;3.22;;;;;;;;;;4990551;28;20066;-66
2022/09/05 09:09:08;;;;;;;7.10;2.75;;;;;;;;;;4999160;28;20196;-66
2022/09/05 09:11:51;;;;;;;8.23;3.30;;;;;;;;;;5009943;28;20058;-65
2022/09/05 09:14:55;;;;;;;7.82;3.08;;;;;;;;;;5009549;28;20525;-66
2022/09/05 09:17:44;;;;;;;9.18;3.13;;;;;;;;;;4981323;28;20070;-65
2022/09/05 09:20:42;;;;;;;8.68;3.08;;;;;;;;;;4970679;28;20507;-65
2022/09/05 09:23:40;;;;;;;8.27;3.95;;;;;;;;;;4951294;28;20496;-66
2022/09/05 09:26:21;;;;;;;7.38;2.80;;;;;;;;;;4916708;29;20508;-66
2022/09/05 09:29:11;;;;;;;7.70;3.00;;;;;;;;;;4932411;29;20434;-65
2022/09/05 09:32:00;;;;;;;6.78;2.42;;;;;;;;;;4900642;29;20059;-65
2022/09/05 09:34:37;;;;;;;10.35;2.97;;;;;;;;;;4931728;29;20056;-65
2022/09/05 09:37:44;;;;;;;7.25;2.83;;;;;;;;;;4932029;29;20071;-66
2022/09/05 09:40:23;;;;;;;6.90;2.85;;;;;;;;;;4931973;29;20055;-66
2022/09/05 09:43:17;;;;;;;7.32;2.72;;;;;;;;;;4932244;29;20052;-65
2022/09/05 09:45:50;;;;;;;8.27;3.15;;;;;;;;;;4856476;29;20066;-65
2022/09/05 09:49:03;;;;;;;7.47;3.05;;;;;;;;;;4864711;29;20056;-65
2022/09/05 09:52:20;;;;;;;8.02;3.05;;;;;;;;;;4875781;29;20584;-66
2022/09/05 09:55:37;;;;;;;7.50;2.80;;;;;;;;;;4898138;29;20066;-66
2022/09/05 09:59:01;;;;;;;6.53;3.20;;;;;;;;;;4931976;29;20086;-66
2022/09/05 10:01:58;;;;;;;8.38;3.35;;;;;;;;;;4894177;29;20073;-66
2022/09/05 10:05:16;;;;;;;7.30;2.95;;;;;;;;;;4929816;29;20063;-66
2022/09/05 10:08:41;;;;;;;7.00;3.25;;;;;;;;;;4935382;29;20051;-66
2022/09/05 10:11:29;;;;;;;6.93;2.97;;;;;;;;;;4897809;29;20065;-65
2022/09/05 10:14:50;;;;;;;8.20;3.10;;;;;;;;;;4897215;29;20056;-66
2022/09/05 10:17:46;;;;;;;7.75;3.45;;;;;;;;;;4900824;29;20048;-65
2022/09/05 10:20:36;;;;;;;7.47;3.22;;;;;;;;;;4901100;29;20060;-66
2022/09/05 10:23:20;;;;;;;8.10;3.60;;;;;;;;;;4910622;29;20060;-66
2022/09/05 10:26:21;;;;;;;7.72;3.40;;;;;;;;;;4916299;29;20056;-66
2022/09/05 10:29:30;;;;;;;9.25;3.95;;;;;;;;;;4916018;29;20068;-66
2022/09/05 10:32:23;;;;;;;11.35;5.05;;;;;;;;;;4916470;29;20066;-66
2022/09/05 10:35:21;;;;;;;9.98;5.05;;;;;;;;;;4913887;29;20059;-65
2022/09/05 10:38:18;;;;;;;10.82;4.80;;;;;;;;;;4935481;29;20519;-66
2022/09/05 10:40:51;;;;;;;13.35;5.57;;;;;;;;;;4938812;29;20055;-65
2022/09/05 10:44:01;;;;;;;11.85;5.13;;;;;;;;;;4954321;29;20062;-66
2022/09/05 10:46:57;;;;;;;13.38;5.57;;;;;;;;;;4954109;29;20412;-66
2022/09/05 10:49:32;;;;;;;12.73;5.43;;;;;;;;;;4993291;28;20395;-66
2022/09/05 10:52:21;;;;;;;11.88;4.97;;;;;;;;;;4994956;28;20075;-66
2022/09/05 10:55:12;;;;;;;13.65;5.80;;;;;;;;;;5041555;28;20057;-66
2022/09/05 10:58:10;;;;;;;13.48;6.00;;;;;;;;;;5052222;28;20061;-66
2022/09/05 11:01:22;;;;;;;13.88;5.95;;;;;;;;;;5035987;28;20061;-66
2022/09/05 11:04:28;;;;;;;15.07;5.47;;;;;;;;;;5017550;28;20071;-66
2022/09/05 11:07:11;;;;;;;13.90;5.82;;;;;;;;;;5031806;28;20046;-67
2022/09/05 11:10:09;;;;;;;11.18;5.43;;;;;;;;;;5012213;28;20080;-66
2022/09/05 11:13:07;;;;;;;14.75;5.80;;;;;;;;;;4979982;28;20056;-66
2022/09/05 11:16:02;;;;;;;16.55;5.65;;;;;;;;;;5012234;28;20057;-66
2022/09/05 11:19:27;;;;;;;12.38;5.72;;;;;;;;;;5011307;28;20387;-66
2022/09/05 11:22:03;;;;;;;13.27;5.25;;;;;;;;;;4937679;29;20055;-66
2022/09/05 11:25:02;;;;;;;17.30;7.35;;;;;;;;;;4942352;29;20059;-66
2022/09/05 11:27:49;;;;;;;15.98;7.07;;;;;;;;;;4953702;29;20055;-66
2022/09/05 11:30:32;;;;;;;14.55;6.50;;;;;;;;;;4953540;29;20056;-66
2022/09/05 11:33:24;;;;;;;16.08;7.00;;;;;;;;;;4903018;29;20063;-66
2022/09/05 11:36:30;;;;;;;20.20;7.55;;;;;;;;;;4950015;29;20070;-65
2022/09/05 11:40:11;;;;;;;16.92;8.35;;;;;;;;;;4922273;28;20060;-65
2022/09/05 11:43:27;;;;;;;29.73;15.40;;;;;;;;;;4915119;29;20060;-66
2022/09/05 11:46:19;;;;;;;22.70;10.38;;;;;;;;;;4953392;29;20058;-66
2022/09/05 11:49:13;;;;;;;21.88;10.00;;;;;;;;;;4914731;29;20052;-66
2022/09/05 11:52:20;;;;;;;20.45;10.23;;;;;;;;;;4914689;29;20076;-66
2022/09/05 11:54:57;;;;;;;24.67;11.25;;;;;;;;;;4914856;29;20067;-66
2022/09/05 11:58:02;;;;;;;20.00;9.73;;;;;;;;;;4914749;29;20060;-66
2022/09/05 12:01:11;;;;;;;22.25;9.73;;;;;;;;;;4952841;28;20054;-66
2022/09/05 12:04:26;;;;;;;6.95;3.78;;;;;;;;;;4952791;28;20070;-67
2022/09/05 12:07:01;;;;;;;5.82;2.85;;;;;;;;;;4933296;29;20048;-66
2022/09/05 12:10:21;;;;;;;5.03;2.30;;;;;;;;;;4920960;29;20059;-67
2022/09/05 12:13:30;;;;;;;16.15;5.50;;;;;;;;;;4933845;29;20071;-67
2022/09/05 12:16:46;;;;;;;10.07;3.30;;;;;;;;;;4933665;29;20067;-67
2022/09/05 12:19:36;;;;;;;12.05;4.53;;;;;;;;;;4976632;28;20426;-67
2022/09/05 12:22:19;;;;;;;10.50;4.35;;;;;;;;;;5010506;28;20093;-67
2022/09/05 12:25:10;;;;;;;10.93;4.82;;;;;;;;;;5010814;28;20399;-67
2022/09/05 12:28:06;;;;;;;8.68;3.15;;;;;;;;;;5030544;28;20057;-68
2022/09/05 12:31:37;;;;;;;10.65;4.57;;;;;;;;;;5029496;28;20053;-67
2022/09/05 12:34:51;;;;;;;8.65;3.63;;;;;;;;;;4971713;28;20047;-68
2022/09/05 12:37:59;;;;;;;8.05;3.60;;;;;;;;;;4971561;28;20051;-68
2022/09/05 12:41:16;;;;;;;9.45;3.70;;;;;;;;;;4968537;28;20787;-69
2022/09/05 12:44:48;;;;;;;4.80;2.22;;;;;;;;;;4957974;28;20429;-69
2022/09/05 12:47:22;;;;;;;8.77;3.45;;;;;;;;;;4952136;29;20066;-69
2022/09/05 12:50:16;;;;;;;7.32;2.20;;;;;;;;;;4952277;29;20055;-69
2022/09/05 12:52:57;;;;;;;9.00;2.70;;;;;;;;;;4935614;29;20058;-68
2022/09/05 12:55:37;;;;;;;6.03;2.63;;;;;;;;;;4967671;28;20054;-69
2022/09/05 12:58:26;;;;;;;6.95;3.08;;;;;;;;;;4951904;29;20508;-69
2022/09/05 13:01:29;;;;;;;11.18;3.42;;;;;;;;;;4951649;29;20623;-70
2022/09/05 13:04:23;;;;;;;8.43;3.85;;;;;;;;;;4951658;29;20474;-70
2022/09/05 13:07:08;;;;;;;7.13;2.88;;;;;;;;;;4935214;29;20055;-72
2022/09/05 13:09:54;;;;;;;5.65;2.65;;;;;;;;;;4954172;28;20054;-72
2022/09/05 13:12:53;;;;;;;6.95;2.45;;;;;;;;;;4990464;28;20054;-70
2022/09/05 13:15:49;;;;;;;4.57;1.88;;;;;;;;;;4990411;28;20202;-69
2022/09/05 13:18:45;;;;;;;6.38;2.47;;;;;;;;;;4990452;28;20069;-70
2022/09/05 13:21:21;;;;;;;5.35;1.83;;;;;;;;;;4990055;28;20059;-69
2022/09/05 13:24:06;;;;;;;3.10;1.40;;;;;;;;;;5017291;28;20056;-71
2022/09/05 13:26:54;;;;;;;6.30;1.70;;;;;;;;;;5019486;28;20443;-70
2022/09/05 13:29:45;;;;;;;5.30;2.83;;;;;;;;;;5020077;28;20504;-70
2022/09/05 13:32:42;;;;;;;10.27;4.00;;;;;;;;;;5082596;28;20343;-70
2022/09/05 13:35:38;;;;;;;4.18;1.73;;;;;;;;;;5090841;28;20047;-70
2022/09/05 13:38:58;;;;;;;6.15;2.20;;;;;;;;;;5089567;28;20052;-71
2022/09/05 13:41:50;;;;;;;5.10;1.67;;;;;;;;;;5082132;28;20052;-71
2022/09/05 13:44:21;;;;;;;5.20;1.92;;;;;;;;;;5078444;28;20075;-69
2022/09/05 13:46:55;;;;;;;2.72;1.23;;;;;;;;;;5052787;28;20154;-70
2022/09/05 13:49:35;;;;;;;4.82;1.70;;;;;;;;;;5068816;28;20049;-71
2022/09/05 13:52:39;;;;;;;7.15;2.17;;;;;;;;;;5068407;28;20053;-69
2022/09/05 13:55:36;;;;;;;4.88;2.13;;;;;;;;;;4997382;28;20062;-69
2022/09/05 13:58:25;;;;;;;6.25;2.05;;;;;;;;;;4988621;28;20058;-70
2022/09/05 14:01:23;;;;;;;3.90;1.65;;;;;;;;;;4996210;28;20532;-71
2022/09/05 14:04:24;;;;;;;5.40;2.15;;;;;;;;;;5030144;22;20434;-69
2022/09/05 14:07:33;;;;;;;7.50;2.20;;;;;;;;;;5056218;28;20487;-69
2022/09/05 14:10:30;;;;;;;5.82;2.00;;;;;;;;;;5070658;28;20048;-68
2022/09/05 14:13:15;;;;;;;4.78;2.05;;;;;;;;;;5071188;28;20518;-68
2022/09/05 14:16:03;;;;;;;4.97;1.73;;;;;;;;;;5051527;28;20052;-68
2022/09/05 14:21:31;;;;;;;3.40;1.50;;;;;;;;;;5071570;28;20051;-67
2022/09/05 14:24:25;;;;;;;5.47;2.08;;;;;;;;;;5049305;28;20049;-69
2022/09/05 14:26:59;;;;;;;5.97;1.73;;;;;;;;;;5001515;28;20059;-68
2022/09/05 14:29:46;;;;;;;4.80;1.77;;;;;;;;;;5049352;28;20049;-68
2022/09/05 14:32:19;;;;;;;4.20;1.88;;;;;;;;;;5049071;28;20049;-69
2022/09/05 14:35:30;;;;;;;4.85;1.63;;;;;;;;;;5049108;28;20068;-69
2022/09/05 14:38:52;;;;;;;5.65;1.52;;;;;;;;;;5048844;28;20045;-67
2022/09/05 14:41:46;;;;;;;4.50;1.48;;;;;;;;;;5010652;28;20525;-69
2022/09/05 14:45:12;;;;;;;7.03;2.00;;;;;;;;;;4984457;28;20081;-68
2022/09/05 14:48:12;;;;;;;5.78;2.03;;;;;;;;;;5009212;28;20058;-68
2022/09/05 14:51:02;;;;;;;5.07;1.67;;;;;;;;;;5010281;28;20160;-68
2022/09/05 14:53:46;;;;;;;5.32;1.80;;;;;;;;;;4993382;28;20050;-68
2022/09/05 14:56:37;;;;;;;5.97;1.73;;;;;;;;;;5012687;28;20057;-67
2022/09/05 14:59:43;;;;;;;5.18;1.60;;;;;;;;;;5012831;28;20508;-70
2022/09/05 15:02:41;;;;;;;3.88;1.85;;;;;;;;;;5012701;28;20465;-70
2022/09/05 15:05:39;;;;;;;4.10;1.65;;;;;;;;;;5006026;28;20494;-69
2022/09/05 15:08:17;;;;;;;4.20;2.03;;;;;;;;;;4993052;28;20403;-69
2022/09/05 15:11:12;;;;;;;5.32;2.00;;;;;;;;;;4993424;28;20055;-69
2022/09/05 15:14:06;;;;;;;4.40;1.58;;;;;;;;;;4992952;28;20418;-67
2022/09/05 15:16:44;;;;;;;4.90;2.25;;;;;;;;;;4993048;28;20046;-68
2022/09/05 15:19:58;;;;;;;3.05;1.75;;;;;;;;;;5004682;28;20054;-68
2022/09/05 15:22:40;;;;;;;6.20;1.80;;;;;;;;;;4915429;29;20448;-68
2022/09/05 15:25:20;;;;;;;5.63;1.80;;;;;;;;;;4916100;29;20067;-67
2022/09/05 15:27:52;;;;;;;5.75;1.95;;;;;;;;;;4896582;29;20509;-68
2022/09/05 15:30:27;;;;;;;7.18;2.50;;;;;;;;;;4896885;29;20060;-68
2022/09/05 15:33:22;;;;;;;3.63;1.48;;;;;;;;;;4896406;29;20533;-68
2022/09/05 15:35:57;;;;;;;7.63;2.17;;;;;;;;;;4896692;29;20060;-68
2022/09/05 15:38:37;;;;;;;;;;;;;;;;;;4897067;29;20048;-68
2022/09/05 15:41:29;;;;;;;6.40;1.80;;;;;;;;;;4896860;29;19931;-68
2022/09/05 15:44:09;;;;;;;3.78;1.80;;;;;;;;;;4896654;29;20065;-68
2022/09/05 15:46:48;;;;;;;4.03;1.40;;;;;;;;;;4896563;29;20057;-68
2022/09/05 15:49:30;;;;;;;3.15;1.42;;;;;;;;;;4896746;29;20067;-67
2022/09/05 15:52:07;;;;;;;5.15;1.48;;;;;;;;;;4896564;29;20455;-68
2022/09/05 15:54:47;;;;;;;5.88;1.88;;;;;;;;;;4896734;29;20061;-68
2022/09/05 15:57:32;;;;;;;3.70;1.40;;;;;;;;;;4896358;29;20063;-68
2022/09/05 16:04:16;;;;;;;5.68;2.00;;;;;;;;;;4972031;28;20054;-68
2022/09/05 16:07:07;;;;;;;4.93;1.80;;;;;;;;;;4992365;28;20053;-68
2022/09/05 16:10:01;;;;;;;7.93;1.30;;;;;;;;;;5004066;28;20056;-68
2022/09/05 16:12:54;;;;;;;5.97;1.80;;;;;;;;;;5051266;28;20049;-68
2022/09/05 16:15:37;;;;;;;3.75;1.60;;;;;;;;;;5040592;28;20056;-68
2022/09/05 16:18:41;;;;;;;5.10;1.58;;;;;;;;;;5050953;28;20060;-68
2022/09/05 16:21:33;;;;;;;5.90;1.73;;;;;;;;;;5030664;28;20053;-68
2022/09/05 16:24:29;;;;;;;5.18;1.65;;;;;;;;;;5017345;28;20064;-68
2022/09/05 16:27:38;;;;;;;5.35;1.80;;;;;;;;;;5030635;28;20049;-68
2022/09/05 16:30:26;;;;;;;3.13;1.63;;;;;;;;;;5030628;28;20057;-68
2022/09/05 16:33:08;;;;;;;3.75;2.08;;;;;;;;;;4990829;28;20050;-67
2022/09/05 16:35:53;;;;;;;4.65;1.52;;;;;;;;;;4991022;28;20065;-68
2022/09/05 16:38:26;;;;;;;6.53;2.33;;;;;;;;;;4959137;28;20069;-68
2022/09/05 16:41:43;;;;;;;3.25;1.58;;;;;;;;;;4990819;28;20055;-69
2022/09/05 16:44:23;;;;;;;3.65;1.50;;;;;;;;;;4928738;28;20057;-68
2022/09/05 16:47:22;;;;;;;5.40;2.30;;;;;;;;;;4991060;28;20417;-68
2022/09/05 16:50:11;;;;;;;6.10;1.95;;;;;;;;;;4990875;28;20065;-69
2022/09/05 16:52:45;;;;;;;5.45;2.35;;;;;;;;;;4975280;28;20061;-68
2022/09/05 16:55:53;;;;;;;5.60;1.77;;;;;;;;;;4924868;28;20066;-69
2022/09/05 16:58:26;;;;;;;4.70;1.70;;;;;;;;;;4958293;28;20061;-69
2022/09/05 17:01:12;;;;;;;4.30;1.75;;;;;;;;;;5006806;28;20057;-70
2022/09/05 17:03:49;;;;;;;6.43;2.15;;;;;;;;;;4974328;28;20062;-71
2022/09/05 17:06:21;;;;;;;4.55;1.98;;;;;;;;;;4990543;28;20062;-70
2022/09/05 17:09:02;;;;;;;4.88;2.10;;;;;;;;;;4990600;28;20114;-71
2022/09/05 17:11:42;;;;;;;4.53;1.70;;;;;;;;;;4972082;28;20058;-70
2022/09/05 17:14:36;;;;;;;4.93;2.30;;;;;;;;;;4996515;28;20057;-70
2022/09/05 17:17:20;;;;;;;4.85;2.42;;;;;;;;;;4976974;28;20397;-69
2022/09/05 17:20:15;;;;;;;6.88;2.33;;;;;;;;;;5010109;28;20061;-69
2022/09/05 17:22:57;;;;;;;9.32;3.88;;;;;;;;;;5010072;28;20623;-70
2022/09/05 17:25:58;;;;;;;7.93;2.75;;;;;;;;;;5009923;28;20062;-70
2022/09/05 17:28:52;;;;;;;5.57;2.03;;;;;;;;;;4990215;28;20051;-70
2022/09/05 17:31:54;;;;;;;3.78;1.63;;;;;;;;;;4989987;28;20073;-69
2022/09/05 17:34:51;;;;;;;15.57;5.50;;;;;;;;;;4975444;28;20057;-70
2022/09/05 17:38:01;;;;;;;8.93;3.40;;;;;;;;;;5009554;28;20053;-70
2022/09/05 17:41:00;;;;;;;5.65;2.80;;;;;;;;;;5009835;28;20054;-70
2022/09/05 17:43:37;;;;;;;9.98;3.15;;;;;;;;;;5009790;28;20053;-67